createdAt,value
2019-02-06T00:02:11.628Z,101990.98
2019-02-06T00:04:41.662Z,101992.23
2019-02-06T00:07:11.284Z,101986.80
2019-02-06T00:09:41.061Z,101992.66
2019-02-06T00:12:10.867Z,102003.98
2019-02-06T00:14:42.050Z,101999.80
2019-02-06T00:17:11.832Z,101991.42
2019-02-06T00:19:41.515Z,101997.28
2019-02-06T00:22:11.143Z,101995.60
2019-02-06T00:24:41.708Z,102001.05
2019-02-06T00:27:11.512Z,101993.52
2019-02-06T00:29:41.537Z,101997.72
2019-02-06T00:32:11.711Z,101997.72
2019-02-06T00:34:41.354Z,102000.63
2019-02-06T00:37:11.110Z,101993.50
2019-02-06T00:39:43.068Z,102004.42
2019-02-06T00:42:12.750Z,102008.61
2019-02-06T00:44:43.144Z,102018.24
2019-02-06T00:47:12.830Z,102015.33
2019-02-06T00:49:42.511Z,102015.30
2019-02-06T00:52:12.222Z,102026.63
2019-02-06T00:54:42.601Z,102013.66
2019-02-06T00:57:12.568Z,102020.34
2019-02-06T00:59:42.193Z,102026.22
2019-02-06T01:02:12.161Z,102019.95
2019-02-06T01:04:42.274Z,102019.52
2019-02-06T01:07:12.471Z,102030.01
2019-02-06T01:09:43.057Z,102029.15
2019-02-06T01:12:13.117Z,102031.27
2019-02-06T01:14:42.906Z,102035.44
2019-02-06T01:17:12.693Z,102035.45
2019-02-06T01:19:42.418Z,102039.64
2019-02-06T01:22:12.959Z,102040.07
2019-02-06T01:24:42.688Z,102036.70
2019-02-06T01:27:13.121Z,102046.78
2019-02-06T01:29:42.738Z,102051.82
2019-02-06T01:32:13.329Z,102048.88
2019-02-06T01:34:44.224Z,102053.08
2019-02-06T01:37:15.594Z,102055.16
2019-02-06T01:39:45.247Z,102056.00
2019-02-06T01:42:15.756Z,102052.22
2019-02-06T01:44:45.375Z,102045.11
2019-02-06T01:47:15.068Z,102040.91
2019-02-06T01:49:45.032Z,102046.34
2019-02-06T01:52:14.649Z,102048.05
2019-02-06T01:54:44.417Z,102044.68
2019-02-06T01:57:14.905Z,102046.77
2019-02-06T01:59:44.902Z,102053.06
2019-02-06T02:02:14.633Z,102056.00
2019-02-06T02:04:44.358Z,102050.12
2019-02-06T02:07:14.110Z,102046.75
2019-02-06T02:09:44.053Z,102051.38
2019-02-06T02:12:14.098Z,102055.59
2019-02-06T02:14:44.190Z,102057.27
2019-02-06T02:17:14.383Z,102057.66
2019-02-06T02:19:45.153Z,102059.76
2019-02-06T02:22:14.959Z,102058.11
2019-02-06T02:24:45.359Z,102057.69
2019-02-06T02:27:15.022Z,102053.45
2019-02-06T02:29:45.736Z,102061.03
2019-02-06T02:32:15.543Z,102065.62
2019-02-06T02:34:45.577Z,102061.03
2019-02-06T02:37:15.386Z,102059.35
2019-02-06T02:39:45.665Z,102063.55
2019-02-06T02:42:15.322Z,102064.39
2019-02-06T02:44:44.949Z,102071.09
2019-02-06T02:47:14.654Z,102067.30
2019-02-06T02:49:44.322Z,102075.28
2019-02-06T02:52:14.315Z,102071.50
2019-02-06T02:54:44.206Z,102076.13
2019-02-06T02:57:14.898Z,102076.52
2019-02-06T02:59:44.536Z,102076.11
2019-02-06T03:02:15.861Z,102076.53
2019-02-06T03:04:46.770Z,102080.33
2019-02-06T03:07:16.689Z,102086.63
2019-02-06T03:09:46.552Z,102079.47
2019-02-06T03:12:16.273Z,102088.28
2019-02-06T03:14:46.127Z,102092.91
2019-02-06T03:17:15.755Z,102093.32
2019-02-06T03:19:47.210Z,102096.67
2019-02-06T03:22:17.145Z,102098.77
2019-02-06T03:24:47.528Z,102096.66
2019-02-06T03:27:18.018Z,102098.74
2019-02-06T03:29:48.806Z,102107.58
2019-02-06T03:32:18.550Z,102102.54
2019-02-06T03:34:48.392Z,102100.87
2019-02-06T03:37:18.149Z,102106.34
2019-02-06T03:39:47.890Z,102102.14
2019-02-06T03:42:17.399Z,102106.76
2019-02-06T03:44:47.422Z,102105.05
2019-02-06T03:47:17.032Z,102107.16
2019-02-06T03:49:46.783Z,102103.79
2019-02-06T03:52:16.654Z,102103.80
2019-02-06T03:54:47.340Z,102106.31
2019-02-06T03:57:17.138Z,102106.31
2019-02-06T03:59:47.735Z,102108.00
2019-02-06T04:02:17.474Z,102106.32
2019-02-06T04:04:47.187Z,102102.95
2019-02-06T04:07:17.205Z,102112.61
2019-02-06T04:09:47.249Z,102111.37
2019-02-06T04:12:18.472Z,102112.61
2019-02-06T04:14:48.841Z,102108.42
2019-02-06T04:17:19.124Z,102100.05
2019-02-06T04:19:49.926Z,102111.36
2019-02-06T04:22:22.539Z,102118.93
2019-02-06T04:24:52.321Z,102123.97
2019-02-06T04:27:22.232Z,102119.36
2019-02-06T04:29:51.850Z,102125.64
2019-02-06T04:32:23.410Z,102135.31
2019-02-06T04:34:53.026Z,102131.95
2019-02-06T04:37:23.546Z,102134.45
2019-02-06T04:39:53.337Z,102139.05
2019-02-06T04:42:23.377Z,102147.42
2019-02-06T04:44:52.992Z,102151.20
2019-02-06T04:47:22.981Z,102150.36
2019-02-06T04:49:53.344Z,102157.91
2019-02-06T04:52:24.730Z,102163.77
2019-02-06T04:54:55.054Z,102162.52
2019-02-06T04:57:24.865Z,102158.33
2019-02-06T04:59:55.654Z,102174.68
2019-02-06T05:02:25.764Z,102168.82
2019-02-06T05:04:55.430Z,102169.23
2019-02-06T05:07:25.308Z,102172.58
2019-02-06T05:09:54.967Z,102171.32
2019-02-06T05:12:25.206Z,102170.47
2019-02-06T05:14:56.102Z,102173.42
2019-02-06T05:17:26.074Z,102172.56
2019-02-06T05:19:56.534Z,102169.16
2019-02-06T05:22:27.169Z,102183.78
2019-02-06T05:24:57.113Z,102177.06
2019-02-06T05:27:26.952Z,102190.52
2019-02-06T05:29:56.590Z,102186.30
2019-02-06T05:32:27.262Z,102192.53
2019-02-06T05:34:57.468Z,102192.08
2019-02-06T05:37:32.187Z,102199.19
2019-02-06T05:39:58.469Z,102207.58
2019-02-06T05:42:29.813Z,102206.34
2019-02-06T05:44:59.544Z,102210.98
2019-02-06T05:47:29.160Z,102216.03
2019-02-06T05:49:58.873Z,102208.48
2019-02-06T05:52:28.493Z,102211.04
2019-02-06T05:54:58.113Z,102218.20
2019-02-06T05:57:27.773Z,102227.44
2019-02-06T05:59:57.384Z,102239.17
2019-02-06T06:02:27.514Z,102241.27
2019-02-06T06:04:57.279Z,102237.95
2019-02-06T06:07:26.903Z,102245.95
2019-02-06T06:09:56.528Z,102256.05
2019-02-06T06:12:26.193Z,102257.75
2019-02-06T06:14:55.806Z,102260.27
2019-02-06T06:17:25.789Z,102260.25
2019-02-06T06:19:55.775Z,102270.31
2019-02-06T06:22:25.452Z,102277.85
2019-02-06T06:24:55.392Z,102277.84
2019-02-06T06:27:25.056Z,102288.34
2019-02-06T06:29:56.045Z,102289.59
2019-02-06T06:32:26.020Z,102284.17
2019-02-06T06:34:56.974Z,102288.39
2019-02-06T06:37:28.048Z,102293.40
2019-02-06T06:39:58.017Z,102286.66
2019-02-06T06:42:27.686Z,102298.79
2019-02-06T06:44:57.292Z,102306.34
2019-02-06T06:47:28.030Z,102307.16
2019-02-06T06:49:57.701Z,102307.62
2019-02-06T06:52:27.322Z,102312.23
2019-02-06T06:54:57.259Z,102308.88
2019-02-06T06:57:27.196Z,102311.83
2019-02-06T06:59:56.890Z,102314.70
2019-02-06T07:02:26.538Z,102321.33
2019-02-06T07:04:56.396Z,102329.29
2019-02-06T07:07:26.022Z,102329.73
2019-02-06T07:09:55.754Z,102335.63
2019-02-06T07:12:25.438Z,102338.21
2019-02-06T07:14:55.870Z,102332.37
2019-02-06T07:17:25.481Z,102332.80
2019-02-06T07:19:55.146Z,102342.48
2019-02-06T07:22:25.343Z,102345.02
2019-02-06T07:24:54.958Z,102342.89
2019-02-06T07:27:24.629Z,102341.66
2019-02-06T07:29:54.625Z,102351.33
2019-02-06T07:32:24.975Z,102353.43
2019-02-06T07:34:55.841Z,102355.56
2019-02-06T07:37:27.136Z,102360.60
2019-02-06T07:39:56.756Z,102368.59
2019-02-06T07:42:26.729Z,102362.72
2019-02-06T07:44:56.616Z,102369.47
2019-02-06T07:47:27.868Z,102371.16
2019-02-06T07:49:57.686Z,102366.55
2019-02-06T07:52:27.470Z,102367.41
2019-02-06T07:54:57.121Z,102359.84
2019-02-06T07:57:26.815Z,102369.52
2019-02-06T07:59:57.348Z,102379.61
2019-02-06T08:02:27.050Z,102377.08
2019-02-06T08:04:56.810Z,102377.12
2019-02-06T08:07:27.228Z,102378.35
2019-02-06T08:09:58.017Z,102380.41
2019-02-06T08:12:27.715Z,102374.05
2019-02-06T08:14:57.333Z,102373.61
2019-02-06T08:17:26.960Z,102373.56
2019-02-06T08:19:58.259Z,102372.72
2019-02-06T08:22:27.899Z,102365.64
2019-02-06T08:24:57.871Z,102372.38
2019-02-06T08:27:27.938Z,102373.60
2019-02-06T08:29:57.830Z,102372.79
2019-02-06T08:32:27.462Z,102366.52
2019-02-06T08:34:57.316Z,102366.95
2019-02-06T08:37:27.530Z,102372.39
2019-02-06T08:39:57.316Z,102375.36
2019-02-06T08:42:27.389Z,102377.92
2019-02-06T08:45:00.390Z,102377.08
2019-02-06T08:47:30.299Z,102373.73
2019-02-06T08:49:59.985Z,102381.30
2019-02-06T08:52:29.879Z,102380.89
2019-02-06T08:54:59.502Z,102385.08
2019-02-06T08:57:30.434Z,102387.20
2019-02-06T09:00:00.310Z,102383.88
2019-02-06T09:02:31.433Z,102381.38
2019-02-06T09:05:01.601Z,102389.80
2019-02-06T09:07:31.799Z,102387.70
2019-02-06T09:10:01.837Z,102391.89
2019-02-06T09:12:33.121Z,102393.98
2019-02-06T09:15:02.747Z,102400.28
2019-02-06T09:17:34.524Z,102396.91
2019-02-06T09:20:06.902Z,102399.89
2019-02-06T09:22:37.938Z,102403.28
2019-02-06T09:25:12.631Z,102399.51
2019-02-06T09:27:42.448Z,102408.32
2019-02-06T09:30:15.115Z,102407.04
2019-02-06T09:32:46.133Z,102408.34
2019-02-06T09:35:17.159Z,102411.72
2019-02-06T09:37:47.427Z,102412.16
2019-02-06T09:40:23.643Z,102416.78
2019-02-06T09:42:53.896Z,102419.33
2019-02-06T09:45:23.959Z,102417.63
2019-02-06T09:47:53.905Z,102424.34
2019-02-06T09:50:26.912Z,102418.06
2019-02-06T09:52:57.521Z,102415.10
2019-02-06T09:55:27.397Z,102421.84
2019-02-06T09:57:57.082Z,102418.04
2019-02-06T10:00:35.226Z,102418.89
2019-02-06T10:03:06.167Z,102426.05
2019-02-06T10:05:35.966Z,102423.97
2019-02-06T10:08:07.033Z,102429.43
2019-02-06T10:10:36.721Z,102427.33
2019-02-06T10:13:06.537Z,102426.04
2019-02-06T10:15:39.152Z,102422.23
2019-02-06T10:18:09.019Z,102418.80
2019-02-06T10:20:44.497Z,102416.64
2019-02-06T10:23:15.204Z,102421.25
2019-02-06T10:25:44.993Z,102424.19
2019-02-06T10:28:14.665Z,102427.53
2019-02-06T10:30:47.339Z,102423.30
2019-02-06T10:33:19.084Z,102424.59
2019-02-06T10:35:51.953Z,102422.89
2019-02-06T10:38:20.501Z,102428.39
2019-02-06T10:40:50.148Z,102422.05
2019-02-06T10:43:31.586Z,102431.67
2019-02-06T10:45:52.914Z,102425.70
2019-02-06T10:48:22.647Z,102429.12
2019-02-06T10:50:53.297Z,102429.64
2019-02-06T10:53:22.988Z,102430.16
2019-02-06T10:55:53.479Z,102433.98
2019-02-06T10:58:23.217Z,102433.62
2019-02-06T11:00:56.835Z,102437.84
2019-02-06T11:03:26.454Z,102439.55
2019-02-06T11:05:56.323Z,102437.41
2019-02-06T11:08:26.113Z,102434.86
2019-02-06T11:10:55.797Z,102432.78
2019-02-06T11:13:25.456Z,102424.77
2019-02-06T11:15:55.074Z,102436.56
2019-02-06T11:18:24.908Z,102444.97
2019-02-06T11:20:54.789Z,102432.35
2019-02-06T11:23:24.408Z,102431.52
2019-02-06T11:25:54.611Z,102436.97
2019-02-06T11:28:24.299Z,102434.44
2019-02-06T11:30:57.105Z,102444.11
2019-02-06T11:33:26.041Z,102439.89
2019-02-06T11:35:56.286Z,102439.44
2019-02-06T11:38:27.910Z,102443.67
2019-02-06T11:40:57.988Z,102434.81
2019-02-06T11:43:27.672Z,102437.33
2019-02-06T11:45:58.332Z,102438.22
2019-02-06T11:48:29.563Z,102429.39
2019-02-06T11:50:59.272Z,102423.52
2019-02-06T11:53:29.972Z,102411.33
2019-02-06T11:55:59.742Z,102405.36
2019-02-06T11:58:30.395Z,102401.93
2019-02-06T12:01:04.757Z,102409.05
2019-02-06T12:03:35.349Z,102406.08
2019-02-06T12:06:05.168Z,102398.85
2019-02-06T12:08:34.821Z,102397.93
2019-02-06T12:11:05.043Z,102396.19
2019-02-06T12:13:34.840Z,102395.28
2019-02-06T12:16:04.635Z,102402.95
2019-02-06T12:18:35.033Z,102391.67
2019-02-06T12:21:05.760Z,102397.18
2019-02-06T12:23:36.453Z,102390.52
2019-02-06T12:26:06.553Z,102401.06
2019-02-06T12:28:36.364Z,102396.85
2019-02-06T12:31:07.335Z,102395.20
2019-02-06T12:33:38.435Z,102392.28
2019-02-06T12:36:10.413Z,102395.20
2019-02-06T12:38:52.731Z,102393.92
2019-02-06T12:41:13.124Z,102383.02
2019-02-06T12:43:44.513Z,102377.15
2019-02-06T12:46:15.209Z,102377.62
2019-02-06T12:48:44.839Z,102371.76
2019-02-06T12:51:15.167Z,102376.00
2019-02-06T12:53:46.047Z,102372.63
2019-02-06T12:56:15.840Z,102369.69
2019-02-06T12:58:45.611Z,102365.91
2019-02-06T13:01:16.310Z,102364.63
2019-02-06T13:03:47.992Z,102361.70
2019-02-06T13:06:18.590Z,102362.53
2019-02-06T13:08:48.219Z,102367.56
2019-02-06T13:11:19.179Z,102359.17
2019-02-06T13:13:49.256Z,102352.88
2019-02-06T13:16:20.139Z,102351.62
2019-02-06T13:18:50.033Z,102351.59
2019-02-06T13:21:20.511Z,102350.74
2019-02-06T13:23:50.142Z,102356.61
2019-02-06T13:26:19.764Z,102359.95
2019-02-06T13:28:49.450Z,102351.06
2019-02-06T13:31:20.010Z,102342.56
2019-02-06T13:33:49.903Z,102341.66
2019-02-06T13:36:19.879Z,102332.41
2019-02-06T13:38:49.833Z,102330.31
2019-02-06T13:41:19.740Z,102327.38
2019-02-06T13:43:49.592Z,102326.98
2019-02-06T13:46:19.387Z,102324.89
2019-02-06T13:48:49.023Z,102334.54
2019-02-06T13:51:19.702Z,102332.02
2019-02-06T13:53:51.850Z,102323.61
2019-02-06T13:56:21.640Z,102321.95
2019-02-06T13:58:53.400Z,102319.88
2019-02-06T14:01:25.828Z,102313.14
2019-02-06T14:03:55.219Z,102313.95
2019-02-06T14:06:25.002Z,102303.32
2019-02-06T14:08:57.579Z,102303.23
2019-02-06T14:11:27.393Z,102293.56
2019-02-06T14:13:58.055Z,102289.02
2019-02-06T14:16:27.807Z,102282.36
2019-02-06T14:18:58.573Z,102268.11
2019-02-06T14:21:28.410Z,102264.79
2019-02-06T14:24:04.034Z,102266.12
2019-02-06T14:26:37.138Z,102263.64
2019-02-06T14:29:15.930Z,102269.14
2019-02-06T14:31:49.483Z,102269.56
2019-02-06T14:34:40.340Z,102279.69
2019-02-06T14:37:22.032Z,102281.38
2019-02-06T14:39:57.935Z,102278.03
2019-02-06T14:42:33.202Z,102281.41
2019-02-06T14:45:22.563Z,102286.88
2019-02-06T14:48:05.231Z,102294.01
2019-02-06T14:50:37.918Z,102294.44
2019-02-06T14:53:33.055Z,102297.39
2019-02-06T14:56:18.296Z,102297.41
2019-02-06T14:59:03.072Z,102302.45
2019-02-06T15:01:42.615Z,102300.77
2019-02-06T15:04:33.245Z,102293.64
2019-02-06T15:07:25.185Z,102295.73
2019-02-06T15:10:17.731Z,102288.16
2019-02-06T15:13:02.472Z,102281.45
2019-02-06T15:15:53.079Z,102277.67
2019-02-06T15:18:50.189Z,102270.52
2019-02-06T15:21:23.290Z,102267.16
2019-02-06T15:23:56.284Z,102272.61
2019-02-06T15:26:38.156Z,102261.70
2019-02-06T15:29:38.207Z,102265.06
2019-02-06T15:32:20.202Z,102261.69
2019-02-06T15:34:58.870Z,102261.69
2019-02-06T15:37:52.955Z,102263.36
2019-02-06T15:40:28.593Z,102272.20
2019-02-06T15:43:01.692Z,102261.70
2019-02-06T15:45:37.442Z,102268.00
2019-02-06T15:48:19.422Z,102256.64
2019-02-06T15:51:04.337Z,102241.54
2019-02-06T15:53:57.483Z,102240.28
2019-02-06T15:56:42.582Z,102235.64
2019-02-06T15:59:18.320Z,102245.33
2019-02-06T16:02:10.734Z,102246.56
2019-02-06T16:05:08.155Z,102253.70
2019-02-06T16:07:46.933Z,102246.98
2019-02-06T16:10:22.687Z,102245.31
2019-02-06T16:13:21.261Z,102245.72
2019-02-06T16:16:16.717Z,102248.24
2019-02-06T16:19:06.739Z,102239.02
2019-02-06T16:21:53.227Z,102231.89
2019-02-06T16:24:25.514Z,102225.16
2019-02-06T16:27:10.119Z,102218.42
2019-02-06T16:30:00.116Z,102206.67
2019-02-06T16:32:34.765Z,102186.11
2019-02-06T16:35:10.873Z,102178.14
2019-02-06T16:37:55.894Z,102175.20
2019-02-06T16:40:34.101Z,102173.49
2019-02-06T16:43:20.700Z,102166.78
2019-02-06T16:46:01.743Z,102161.34
2019-02-06T16:48:52.492Z,102155.86
2019-02-06T16:51:26.655Z,102149.56
2019-02-06T16:54:17.583Z,102127.73
2019-02-06T16:56:59.153Z,102110.94
2019-02-06T16:59:57.937Z,102110.11
2019-02-06T17:02:37.450Z,102110.52
2019-02-06T17:05:31.581Z,102110.09
2019-02-06T17:08:23.801Z,102111.37
2019-02-06T17:11:16.357Z,102128.16
2019-02-06T17:14:02.597Z,102130.68
2019-02-06T17:16:52.311Z,102144.12
2019-02-06T17:19:31.192Z,102134.47
2019-02-06T17:22:12.464Z,102131.52
2019-02-06T17:24:47.675Z,102124.38
2019-02-06T17:27:26.461Z,102125.22
2019-02-06T17:30:00.304Z,102120.63
2019-02-06T17:32:42.145Z,102114.30
2019-02-06T17:35:17.787Z,102107.61
2019-02-06T17:37:56.593Z,102101.30
2019-02-06T17:40:54.239Z,102099.60
2019-02-06T17:43:41.938Z,102105.06
2019-02-06T17:46:33.256Z,102097.52
2019-02-06T17:49:06.124Z,102092.05
2019-02-06T17:51:48.328Z,102075.69
2019-02-06T17:54:27.891Z,102083.66
2019-02-06T17:56:57.749Z,102084.91
2019-02-06T17:59:27.386Z,102087.87
2019-02-06T18:01:58.112Z,102097.10
2019-02-06T18:04:29.275Z,102098.36
2019-02-06T18:06:59.517Z,102091.23
2019-02-06T18:09:29.791Z,102083.65
2019-02-06T18:11:59.756Z,102079.06
2019-02-06T18:14:29.384Z,102084.50
2019-02-06T18:17:00.635Z,102086.19
2019-02-06T18:19:31.783Z,102074.41
2019-02-06T18:22:01.488Z,102063.89
2019-02-06T18:24:31.393Z,102065.14
2019-02-06T18:27:01.732Z,102057.19
2019-02-06T18:29:31.382Z,102063.89
2019-02-06T18:32:01.196Z,102061.80
2019-02-06T18:34:31.197Z,102053.41
2019-02-06T18:37:01.389Z,102049.20
2019-02-06T18:39:31.159Z,102047.10
2019-02-06T18:42:00.837Z,102052.98
2019-02-06T18:44:30.872Z,102053.01
2019-02-06T18:47:02.454Z,102035.36
2019-02-06T18:49:31.937Z,102041.66
2019-02-06T18:52:02.648Z,102038.70
2019-02-06T18:54:32.533Z,102032.83
2019-02-06T18:57:02.256Z,102026.94
2019-02-06T18:59:32.453Z,102027.77
2019-02-06T19:02:02.307Z,102017.69
2019-02-06T19:04:33.183Z,102018.91
2019-02-06T19:07:03.867Z,102009.69
2019-02-06T19:09:33.570Z,102012.64
2019-02-06T19:12:03.683Z,102002.58
2019-02-06T19:14:36.331Z,102008.03
2019-02-06T19:17:06.333Z,101999.64
2019-02-06T19:19:37.499Z,101998.80
2019-02-06T19:22:07.148Z,102002.61
2019-02-06T19:24:36.910Z,101990.00
2019-02-06T19:27:06.929Z,101993.39
2019-02-06T19:29:44.104Z,101991.30
2019-02-06T19:32:18.322Z,101976.22
2019-02-06T19:34:48.072Z,101977.06
2019-02-06T19:37:17.780Z,101980.44
2019-02-06T19:39:47.490Z,101975.41
2019-02-06T19:42:18.385Z,101974.56
2019-02-06T19:44:53.628Z,101965.77
2019-02-06T19:47:30.869Z,101962.84
2019-02-06T19:50:02.441Z,101958.23
2019-02-06T19:52:32.154Z,101962.00
2019-02-06T19:55:03.295Z,101964.95
2019-02-06T19:57:32.975Z,101962.43
2019-02-06T20:00:04.909Z,101951.97
2019-02-06T20:02:38.657Z,101966.66
2019-02-06T20:05:12.430Z,101974.20
2019-02-06T20:07:44.711Z,101965.83
2019-02-06T20:10:25.863Z,101972.11
2019-02-06T20:12:56.532Z,101982.17
2019-02-06T20:15:26.345Z,101976.27
2019-02-06T20:17:59.148Z,101977.55
2019-02-06T20:20:29.830Z,101979.66
2019-02-06T20:23:00.469Z,101965.83
2019-02-06T20:25:39.012Z,101970.44
2019-02-06T20:28:08.777Z,101962.47
2019-02-06T20:30:39.917Z,101949.03
2019-02-06T20:33:10.165Z,101951.97
2019-02-06T20:35:40.260Z,101957.87
2019-02-06T20:38:10.042Z,101946.52
2019-02-06T20:40:42.472Z,101942.75
2019-02-06T20:43:21.752Z,101942.75
2019-02-06T20:45:43.620Z,101944.42
2019-02-06T20:48:13.350Z,101938.14
2019-02-06T20:50:43.310Z,101938.58
2019-02-06T20:53:13.069Z,101943.19
2019-02-06T20:55:42.737Z,101939.02
2019-02-06T20:58:13.966Z,101933.14
2019-02-06T21:00:44.794Z,101933.56
2019-02-06T21:03:19.125Z,101933.96
2019-02-06T21:05:51.475Z,101930.61
2019-02-06T21:08:22.790Z,101916.77
2019-02-06T21:10:52.547Z,101913.83
2019-02-06T21:13:32.848Z,101908.37
2019-02-06T21:15:55.349Z,101911.30
2019-02-06T21:18:25.744Z,101910.48
2019-02-06T21:20:55.463Z,101909.61
2019-02-06T21:23:25.064Z,101910.06
2019-02-06T21:25:54.540Z,101909.23
2019-02-06T21:28:24.685Z,101906.27
2019-02-06T21:30:54.317Z,101902.92
2019-02-06T21:33:24.358Z,101906.69
2019-02-06T21:35:54.293Z,101904.60
2019-02-06T21:38:26.748Z,101900.80
2019-02-06T21:40:56.453Z,101896.61
2019-02-06T21:43:26.164Z,101894.92
2019-02-06T21:45:56.056Z,101890.29
2019-02-06T21:48:26.212Z,101890.72
2019-02-06T21:50:59.079Z,101885.67
2019-02-06T21:53:28.708Z,101882.73
2019-02-06T21:55:58.439Z,101879.39
2019-02-06T21:58:28.975Z,101870.58
2019-02-06T22:00:59.003Z,101865.54
2019-02-06T22:03:28.667Z,101869.75
2019-02-06T22:05:58.420Z,101865.53
2019-02-06T22:08:28.038Z,101866.79
2019-02-06T22:10:57.908Z,101864.72
2019-02-06T22:13:29.314Z,101864.33
2019-02-06T22:16:00.711Z,101866.41
2019-02-06T22:18:30.757Z,101864.32
2019-02-06T22:21:02.026Z,101856.80
2019-02-06T22:23:32.036Z,101857.20
2019-02-06T22:26:01.729Z,101853.41
2019-02-06T22:28:31.632Z,101850.48
2019-02-06T22:31:01.265Z,101859.30
2019-02-06T22:33:30.994Z,101861.39
2019-02-06T22:36:00.628Z,101856.36
2019-02-06T22:38:30.360Z,101860.56
2019-02-06T22:41:00.018Z,101863.09
2019-02-06T22:43:30.239Z,101853.89
2019-02-06T22:46:00.214Z,101848.84
2019-02-06T22:48:30.277Z,101838.77
2019-02-06T22:50:59.984Z,101834.17
2019-02-06T22:53:30.297Z,101830.84
2019-02-06T22:56:00.256Z,101838.78
2019-02-06T22:58:31.442Z,101835.03
2019-02-06T23:01:04.610Z,101832.92
2019-02-06T23:03:36.883Z,101830.83
2019-02-06T23:06:07.053Z,101830.00
2019-02-06T23:08:36.956Z,101822.48
2019-02-06T23:11:07.025Z,101810.34
2019-02-06T23:13:37.302Z,101813.70
2019-02-06T23:16:06.997Z,101803.23
2019-02-06T23:18:37.815Z,101802.83
2019-02-06T23:21:09.097Z,101802.83
2019-02-06T23:23:39.141Z,101805.77
2019-02-06T23:26:09.225Z,101802.86
2019-02-06T23:28:38.848Z,101806.20
2019-02-06T23:31:09.071Z,101802.00
2019-02-06T23:33:40.415Z,101799.92
2019-02-06T23:36:10.054Z,101795.31
2019-02-06T23:38:40.246Z,101788.18
2019-02-06T23:41:11.550Z,101783.98
2019-02-06T23:43:41.287Z,101786.50
2019-02-06T23:46:10.729Z,101780.22
2019-02-06T23:48:40.421Z,101774.38
2019-02-06T23:51:11.186Z,101764.73
2019-02-06T23:53:41.696Z,101760.14
2019-02-06T23:56:12.238Z,101752.19
2019-02-06T23:58:42.190Z,101752.20
